sensor_id;sensor_type;location;lat;lon;timestamp;pressure;altitude;pressure_sealevel;temperature;humidity
55604;BME280;41468;48.838;9.330;2023-04-24T00:01:54;97303.75;;;12.52;80.82
55604;BME280;41468;48.838;9.330;2023-04-24T00:04:21;97300.91;;;12.63;80.16
55604;BME280;41468;48.838;9.330;2023-04-24T00:06:48;97301.34;;;12.61;79.18
55604;BME280;41468;48.838;9.330;2023-04-24T00:09:20;97309.22;;;12.55;80.35
55604;BME280;41468;48.838;9.330;2023-04-24T00:11:47;97318.59;;;12.58;79.16
55604;BME280;41468;48.838;9.330;2023-04-24T00:14:13;97314.69;;;12.55;80.48
55604;BME280;41468;48.838;9.330;2023-04-24T00:16:40;97323.69;;;12.56;80.09
55604;BME280;41468;48.838;9.330;2023-04-24T00:19:07;97321.72;;;12.60;79.48
55604;BME280;41468;48.838;9.330;2023-04-24T00:21:34;97318.53;;;12.62;77.99
55604;BME280;41468;48.838;9.330;2023-04-24T00:24:00;97315.41;;;12.63;78.38
55604;BME280;41468;48.838;9.330;2023-04-24T00:26:27;97308.34;;;12.66;78.69
55604;BME280;41468;48.838;9.330;2023-04-24T00:28:54;97312.34;;;12.54;78.78
55604;BME280;41468;48.838;9.330;2023-04-24T00:31:20;97310.78;;;12.56;79.93
55604;BME280;41468;48.838;9.330;2023-04-24T00:33:47;97327.19;;;12.56;78.76
55604;BME280;41468;48.838;9.330;2023-04-24T00:36:14;97331.44;;;12.65;78.63
55604;BME280;41468;48.838;9.330;2023-04-24T00:38:41;97328.69;;;12.65;78.48
55604;BME280;41468;48.838;9.330;2023-04-24T00:41:08;97323.63;;;12.63;79.48
55604;BME280;41468;48.838;9.330;2023-04-24T00:43:34;97319.75;;;12.57;78.50
55604;BME280;41468;48.838;9.330;2023-04-24T00:46:01;97315.81;;;12.62;78.55
55604;BME280;41468;48.838;9.330;2023-04-24T00:48:28;97315.72;;;12.72;77.14
55604;BME280;41468;48.838;9.330;2023-04-24T01:01:42;97305.56;;;12.69;78.59
55604;BME280;41468;48.838;9.330;2023-04-24T01:04:16;97305.91;;;12.75;77.97
55604;BME280;41468;48.838;9.330;2023-04-24T01:06:50;97301.72;;;12.63;78.35
55604;BME280;41468;48.838;9.330;2023-04-24T01:09:25;97300.47;;;12.71;77.66
55604;BME280;41468;48.838;9.330;2023-04-24T01:11:58;97295.88;;;12.61;79.07
55604;BME280;41468;48.838;9.330;2023-04-24T01:14:30;97303.66;;;12.63;79.12
55604;BME280;41468;48.838;9.330;2023-04-24T01:17:03;97295.00;;;12.68;77.31
55604;BME280;41468;48.838;9.330;2023-04-24T01:19:36;97290.34;;;12.65;77.36
55604;BME280;41468;48.838;9.330;2023-04-24T01:22:16;97296.97;;;12.67;77.23
55604;BME280;41468;48.838;9.330;2023-04-24T01:24:52;97289.53;;;12.71;77.47
55604;BME280;41468;48.838;9.330;2023-04-24T01:27:25;97290.34;;;12.65;77.02
55604;BME280;41468;48.838;9.330;2023-04-24T01:29:58;97284.09;;;12.64;77.30
55604;BME280;41468;48.838;9.330;2023-04-24T01:32:31;97284.88;;;12.65;77.85
55604;BME280;41468;48.838;9.330;2023-04-24T01:35:05;97279.81;;;12.63;76.66
55604;BME280;41468;48.838;9.330;2023-04-24T01:37:38;97279.34;;;12.72;77.19
55604;BME280;41468;48.838;9.330;2023-04-24T01:40:11;97278.66;;;12.60;77.47
55604;BME280;41468;48.838;9.330;2023-04-24T01:42:45;97278.66;;;12.60;77.53
55604;BME280;41468;48.838;9.330;2023-04-24T01:45:17;97274.72;;;12.62;77.37
55604;BME280;41468;48.838;9.330;2023-04-24T01:47:50;97267.78;;;12.53;77.58
55604;BME280;41468;48.838;9.330;2023-04-24T01:50:23;97259.50;;;12.57;77.56
55604;BME280;41468;48.838;9.330;2023-04-24T01:52:56;97259.50;;;12.60;77.44
55604;BME280;41468;48.838;9.330;2023-04-24T01:55:29;97260.66;;;12.59;77.30
55604;BME280;41468;48.838;9.330;2023-04-24T01:58:02;97252.81;;;12.62;76.79
55604;BME280;41468;48.838;9.330;2023-04-24T02:00:35;97268.88;;;12.63;76.74
55604;BME280;41468;48.838;9.330;2023-04-24T02:03:08;97259.84;;;12.66;76.38
55604;BME280;41468;48.838;9.330;2023-04-24T02:05:39;97269.25;;;12.62;76.87
55604;BME280;41468;48.838;9.330;2023-04-24T02:08:06;97276.25;;;12.66;76.64
55604;BME280;41468;48.838;9.330;2023-04-24T02:10:33;97262.16;;;12.68;76.37
55604;BME280;41468;48.838;9.330;2023-04-24T02:12:59;97276.69;;;12.61;76.65
55604;BME280;41468;48.838;9.330;2023-04-24T02:15:27;97270.84;;;12.59;76.95
55604;BME280;41468;48.838;9.330;2023-04-24T02:17:53;97274.28;;;12.67;76.58
55604;BME280;41468;48.838;9.330;2023-04-24T02:20:25;97272.81;;;12.58;77.49
55604;BME280;41468;48.838;9.330;2023-04-24T02:22:51;97277.13;;;12.56;77.44
55604;BME280;41468;48.838;9.330;2023-04-24T02:25:23;97277.94;;;12.53;77.26
55604;BME280;41468;48.838;9.330;2023-04-24T02:27:49;97276.81;;;12.50;77.61
55604;BME280;41468;48.838;9.330;2023-04-24T02:30:16;97267.38;;;12.51;77.29
55604;BME280;41468;48.838;9.330;2023-04-24T02:32:43;97265.13;;;12.43;77.99
55604;BME280;41468;48.838;9.330;2023-04-24T02:35:10;97264.69;;;12.48;77.17
55604;BME280;41468;48.838;9.330;2023-04-24T02:37:37;97264.75;;;12.44;77.74
55604;BME280;41468;48.838;9.330;2023-04-24T02:40:04;97274.84;;;12.51;77.39
55604;BME280;41468;48.838;9.330;2023-04-24T02:42:32;97265.00;;;12.57;77.01
55604;BME280;41468;48.838;9.330;2023-04-24T02:44:59;97277.56;;;12.51;77.17
55604;BME280;41468;48.838;9.330;2023-04-24T02:47:25;97280.28;;;12.54;77.36
55604;BME280;41468;48.838;9.330;2023-04-24T02:49:52;97280.66;;;12.56;77.32
55604;BME280;41468;48.838;9.330;2023-04-24T02:52:19;97279.94;;;12.49;77.57
55604;BME280;41468;48.838;9.330;2023-04-24T02:54:46;97300.59;;;12.57;78.44
55604;BME280;41468;48.838;9.330;2023-04-24T02:57:12;97292.03;;;12.55;79.87
55604;BME280;41468;48.838;9.330;2023-04-24T02:59:39;97283.81;;;12.51;82.71
55604;BME280;41468;48.838;9.330;2023-04-24T03:02:06;97287.81;;;12.43;84.92
55604;BME280;41468;48.838;9.330;2023-04-24T03:04:33;97285.56;;;12.31;87.61
55604;BME280;41468;48.838;9.330;2023-04-24T03:07:00;97286.81;;;12.23;89.28
55604;BME280;41468;48.838;9.330;2023-04-24T03:09:27;97267.72;;;12.15;90.24
55604;BME280;41468;48.838;9.330;2023-04-24T03:11:54;97263.41;;;12.18;90.41
55604;BME280;41468;48.838;9.330;2023-04-24T03:14:21;97262.25;;;12.15;90.56
55604;BME280;41468;48.838;9.330;2023-04-24T03:16:48;97269.34;;;12.06;91.19
55604;BME280;41468;48.838;9.330;2023-04-24T03:19:15;97265.09;;;11.98;90.97
55604;BME280;41468;48.838;9.330;2023-04-24T03:21:42;97262.78;;;11.92;92.20
55604;BME280;41468;48.838;9.330;2023-04-24T03:24:09;97253.38;;;11.97;91.91
55604;BME280;41468;48.838;9.330;2023-04-24T03:26:35;97249.13;;;11.92;93.95
55604;BME280;41468;48.838;9.330;2023-04-24T03:29:02;97262.81;;;11.89;93.10
55604;BME280;41468;48.838;9.330;2023-04-24T03:31:29;97258.13;;;11.93;91.87
55604;BME280;41468;48.838;9.330;2023-04-24T03:33:56;97260.88;;;11.89;91.32
55604;BME280;41468;48.838;9.330;2023-04-24T03:36:23;97269.47;;;11.88;90.71
55604;BME280;41468;48.838;9.330;2023-04-24T03:38:49;97271.41;;;11.91;91.39
55604;BME280;41468;48.838;9.330;2023-04-24T03:41:16;97268.25;;;11.92;91.34
55604;BME280;41468;48.838;9.330;2023-04-24T03:43:43;97273.34;;;11.94;91.53
55604;BME280;41468;48.838;9.330;2023-04-24T03:46:10;97266.72;;;11.91;90.99
55604;BME280;41468;48.838;9.330;2023-04-24T03:48:36;97265.16;;;11.90;90.01
55604;BME280;41468;48.838;9.330;2023-04-24T03:51:03;97262.75;;;12.00;88.40
55604;BME280;41468;48.838;9.330;2023-04-24T03:53:34;97256.09;;;12.01;88.50
55604;BME280;41468;48.838;9.330;2023-04-24T03:56:01;97255.31;;;12.04;88.61
55604;BME280;41468;48.838;9.330;2023-04-24T03:58:28;97260.44;;;11.94;90.13
55604;BME280;41468;48.838;9.330;2023-04-24T04:00:54;97250.72;;;11.86;89.32
55604;BME280;41468;48.838;9.330;2023-04-24T04:03:23;97259.75;;;11.80;89.88
55604;BME280;41468;48.838;9.330;2023-04-24T04:05:50;97260.09;;;11.85;88.31
55604;BME280;41468;48.838;9.330;2023-04-24T04:08:21;97267.16;;;11.79;89.04
55604;BME280;41468;48.838;9.330;2023-04-24T04:10:48;97272.63;;;11.79;89.20
55604;BME280;41468;48.838;9.330;2023-04-24T04:13:26;97261.31;;;11.77;88.90
55604;BME280;41468;48.838;9.330;2023-04-24T04:15:53;97272.28;;;11.70;89.93
55604;BME280;41468;48.838;9.330;2023-04-24T04:18:19;97269.09;;;11.79;89.26
55604;BME280;41468;48.838;9.330;2023-04-24T04:20:46;97271.50;;;11.73;89.82
55604;BME280;41468;48.838;9.330;2023-04-24T04:23:13;97279.69;;;11.73;91.12
55604;BME280;41468;48.838;9.330;2023-04-24T04:25:40;97280.50;;;11.70;90.54
55604;BME280;41468;48.838;9.330;2023-04-24T04:28:06;97291.78;;;11.76;91.06
55604;BME280;41468;48.838;9.330;2023-04-24T04:30:33;97300.34;;;11.81;91.19
55604;BME280;41468;48.838;9.330;2023-04-24T04:33:00;97302.69;;;11.79;90.27
55604;BME280;41468;48.838;9.330;2023-04-24T04:35:27;97307.03;;;11.73;91.03
55604;BME280;41468;48.838;9.330;2023-04-24T04:37:54;97317.22;;;11.72;91.77
55604;BME280;41468;48.838;9.330;2023-04-24T04:40:21;97345.00;;;11.57;94.63
55604;BME280;41468;48.838;9.330;2023-04-24T04:42:47;97341.91;;;11.51;99.56
55604;BME280;41468;48.838;9.330;2023-04-24T04:45:14;97340.78;;;11.45;98.67
55604;BME280;41468;48.838;9.330;2023-04-24T04:47:43;97350.53;;;11.39;99.30
55604;BME280;41468;48.838;9.330;2023-04-24T04:50:10;97351.34;;;11.39;98.88
55604;BME280;41468;48.838;9.330;2023-04-24T04:52:37;97356.81;;;11.32;98.25
55604;BME280;41468;48.838;9.330;2023-04-24T04:55:05;97363.47;;;11.24;98.83
55604;BME280;41468;48.838;9.330;2023-04-24T04:57:32;97369.72;;;11.28;98.38
55604;BME280;41468;48.838;9.330;2023-04-24T04:59:58;97367.38;;;11.30;98.35
55604;BME280;41468;48.838;9.330;2023-04-24T05:02:25;97371.28;;;11.22;98.72
55604;BME280;41468;48.838;9.330;2023-04-24T05:04:52;97383.34;;;11.35;96.42
55604;BME280;41468;48.838;9.330;2023-04-24T05:07:19;97374.00;;;11.25;97.34
55604;BME280;41468;48.838;9.330;2023-04-24T05:09:46;97384.94;;;11.25;96.45
55604;BME280;41468;48.838;9.330;2023-04-24T05:12:12;97386.50;;;11.26;95.89
55604;BME280;41468;48.838;9.330;2023-04-24T05:14:39;97392.34;;;11.25;95.37
55604;BME280;41468;48.838;9.330;2023-04-24T05:17:12;97402.91;;;11.23;96.06
55604;BME280;41468;48.838;9.330;2023-04-24T05:19:39;97409.94;;;11.24;92.21
55604;BME280;41468;48.838;9.330;2023-04-24T05:22:06;97418.94;;;11.21;89.15
55604;BME280;41468;48.838;9.330;2023-04-24T05:24:33;97408.78;;;11.18;89.89
55604;BME280;41468;48.838;9.330;2023-04-24T05:27:00;97425.56;;;11.13;90.82
55604;BME280;41468;48.838;9.330;2023-04-24T05:29:28;97423.63;;;11.13;89.57
55604;BME280;41468;48.838;9.330;2023-04-24T05:31:57;97425.19;;;11.07;88.21
55604;BME280;41468;48.838;9.330;2023-04-24T05:34:24;97426.34;;;11.13;89.44
55604;BME280;41468;48.838;9.330;2023-04-24T05:36:51;97428.66;;;11.15;90.54
55604;BME280;41468;48.838;9.330;2023-04-24T05:39:18;97435.72;;;11.09;91.19
55604;BME280;41468;48.838;9.330;2023-04-24T05:41:46;97436.50;;;11.23;91.07
55604;BME280;41468;48.838;9.330;2023-04-24T05:44:18;97440.38;;;11.12;90.60
55604;BME280;41468;48.838;9.330;2023-04-24T05:46:50;97445.47;;;11.13;90.11
55604;BME280;41468;48.838;9.330;2023-04-24T05:49:17;97447.41;;;11.16;90.29
55604;BME280;41468;48.838;9.330;2023-04-24T05:51:43;97449.78;;;11.18;90.19
55604;BME280;41468;48.838;9.330;2023-04-24T05:54:10;97455.97;;;11.25;90.78
55604;BME280;41468;48.838;9.330;2023-04-24T05:56:39;97458.72;;;11.29;91.38
55604;BME280;41468;48.838;9.330;2023-04-24T05:59:08;97464.59;;;11.24;91.77
55604;BME280;41468;48.838;9.330;2023-04-24T06:01:35;97464.59;;;11.31;88.47
55604;BME280;41468;48.838;9.330;2023-04-24T06:04:03;97478.25;;;11.24;90.54
55604;BME280;41468;48.838;9.330;2023-04-24T06:06:30;97475.09;;;11.33;89.25
55604;BME280;41468;48.838;9.330;2023-04-24T06:08:57;97478.63;;;11.40;87.92
55604;BME280;41468;48.838;9.330;2023-04-24T06:11:25;97485.63;;;11.41;86.91
55604;BME280;41468;48.838;9.330;2023-04-24T06:13:51;97483.31;;;11.33;87.23
55604;BME280;41468;48.838;9.330;2023-04-24T06:16:18;97483.72;;;11.31;85.63
55604;BME280;41468;48.838;9.330;2023-04-24T06:18:45;97478.63;;;11.33;85.67
55604;BME280;41468;48.838;9.330;2023-04-24T06:21:13;97479.41;;;11.30;84.25
55604;BME280;41468;48.838;9.330;2023-04-24T06:23:40;97476.28;;;11.35;85.20
55604;BME280;41468;48.838;9.330;2023-04-24T06:26:06;97477.47;;;11.34;88.22
55604;BME280;41468;48.838;9.330;2023-04-24T06:28:33;97479.38;;;11.52;87.80
55604;BME280;41468;48.838;9.330;2023-04-24T06:31:00;97464.84;;;11.83;84.61
55604;BME280;41468;48.838;9.330;2023-04-24T06:33:26;97474.50;;;12.13;81.56
55604;BME280;41468;48.838;9.330;2023-04-24T06:35:53;97471.19;;;12.50;81.96
55604;BME280;41468;48.838;9.330;2023-04-24T06:38:20;97464.94;;;12.50;79.31
55604;BME280;41468;48.838;9.330;2023-04-24T06:40:46;97461.81;;;12.48;78.42
55604;BME280;41468;48.838;9.330;2023-04-24T06:43:13;97463.09;;;12.29;78.50
55604;BME280;41468;48.838;9.330;2023-04-24T06:45:41;97452.47;;;12.38;76.01
55604;BME280;41468;48.838;9.330;2023-04-24T06:48:09;97460.34;;;12.32;79.86
55604;BME280;41468;48.838;9.330;2023-04-24T06:50:36;97464.16;;;12.46;77.58
55604;BME280;41468;48.838;9.330;2023-04-24T06:53:03;97467.31;;;12.44;76.79
55604;BME280;41468;48.838;9.330;2023-04-24T06:55:30;97462.94;;;12.54;76.87
55604;BME280;41468;48.838;9.330;2023-04-24T06:57:57;97460.13;;;12.65;75.97
55604;BME280;41468;48.838;9.330;2023-04-24T07:00:23;97474.09;;;12.81;76.32
55604;BME280;41468;48.838;9.330;2023-04-24T07:02:50;97471.69;;;12.90;77.40
55604;BME280;41468;48.838;9.330;2023-04-24T07:05:17;97475.59;;;12.89;75.82
55604;BME280;41468;48.838;9.330;2023-04-24T07:07:47;97476.50;;;12.79;73.88
55604;BME280;41468;48.838;9.330;2023-04-24T07:10:14;97470.22;;;12.78;73.00
55604;BME280;41468;48.838;9.330;2023-04-24T07:12:40;97473.44;;;12.66;74.00
55604;BME280;41468;48.838;9.330;2023-04-24T07:15:08;97464.69;;;12.86;72.76
55604;BME280;41468;48.838;9.330;2023-04-24T07:17:35;97474.44;;;12.87;73.76
55604;BME280;41468;48.838;9.330;2023-04-24T07:20:02;97462.31;;;12.88;72.60
55604;BME280;41468;48.838;9.330;2023-04-24T07:22:29;97469.44;;;12.81;75.05
55604;BME280;41468;48.838;9.330;2023-04-24T07:24:55;97475.34;;;12.76;75.16
55604;BME280;41468;48.838;9.330;2023-04-24T07:27:26;97473.34;;;12.80;75.15
55604;BME280;41468;48.838;9.330;2023-04-24T07:29:53;97466.50;;;12.51;70.70
55604;BME280;41468;48.838;9.330;2023-04-24T07:32:20;97471.28;;;12.36;72.35
55604;BME280;41468;48.838;9.330;2023-04-24T07:34:46;97491.59;;;12.38;72.08
55604;BME280;41468;48.838;9.330;2023-04-24T07:37:13;97496.34;;;12.24;72.94
55604;BME280;41468;48.838;9.330;2023-04-24T07:39:40;97497.97;;;12.18;73.44
55604;BME280;41468;48.838;9.330;2023-04-24T07:42:07;97499.09;;;12.24;73.13
55604;BME280;41468;48.838;9.330;2023-04-24T07:44:41;97487.72;;;12.32;71.81
55604;BME280;41468;48.838;9.330;2023-04-24T07:47:08;97505.69;;;12.37;69.16
55604;BME280;41468;48.838;9.330;2023-04-24T07:49:34;97502.97;;;12.33;69.52
55604;BME280;41468;48.838;9.330;2023-04-24T07:52:01;97508.75;;;12.50;65.98
55604;BME280;41468;48.838;9.330;2023-04-24T07:54:29;97503.97;;;12.61;66.93
55604;BME280;41468;48.838;9.330;2023-04-24T07:57:03;97507.72;;;12.89;67.93
55604;BME280;41468;48.838;9.330;2023-04-24T07:59:30;97508.53;;;12.86;65.19
55604;BME280;41468;48.838;9.330;2023-04-24T08:01:57;97528.88;;;12.85;64.21
55604;BME280;41468;48.838;9.330;2023-04-24T08:04:24;97510.59;;;12.67;65.28
55604;BME280;41468;48.838;9.330;2023-04-24T08:06:51;97532.84;;;12.73;63.64
55604;BME280;41468;48.838;9.330;2023-04-24T08:09:17;97525.19;;;12.50;60.87
55604;BME280;41468;48.838;9.330;2023-04-24T08:11:51;97546.66;;;12.55;58.81
55604;BME280;41468;48.838;9.330;2023-04-24T08:14:18;97539.16;;;12.66;60.24
55604;BME280;41468;48.838;9.330;2023-04-24T08:16:44;97539.16;;;12.66;60.55
55604;BME280;41468;48.838;9.330;2023-04-24T08:19:23;97541.34;;;12.89;57.18
55604;BME280;41468;48.838;9.330;2023-04-24T08:21:49;97541.28;;;13.03;57.74
55604;BME280;41468;48.838;9.330;2023-04-24T08:24:16;97540.19;;;12.90;57.33
55604;BME280;41468;48.838;9.330;2023-04-24T08:26:43;97541.22;;;13.11;57.45
55604;BME280;41468;48.838;9.330;2023-04-24T08:29:10;97554.78;;;13.32;58.02
55604;BME280;41468;48.838;9.330;2023-04-24T08:31:36;97557.38;;;12.98;57.02
55604;BME280;41468;48.838;9.330;2023-04-24T08:34:03;97559.16;;;13.26;58.64
55604;BME280;41468;48.838;9.330;2023-04-24T08:36:30;97561.50;;;13.20;59.44
55604;BME280;41468;48.838;9.330;2023-04-24T08:39:12;97567.84;;;13.10;61.88
55604;BME280;41468;48.838;9.330;2023-04-24T08:41:41;97572.59;;;13.02;61.17
55604;BME280;41468;48.838;9.330;2023-04-24T08:44:09;97568.69;;;13.00;61.25
55604;BME280;41468;48.838;9.330;2023-04-24T08:46:37;97569.50;;;12.97;61.41
55604;BME280;41468;48.838;9.330;2023-04-24T08:49:08;97571.69;;;13.20;60.86
55604;BME280;41468;48.838;9.330;2023-04-24T08:51:36;97573.59;;;13.75;58.73
55604;BME280;41468;48.838;9.330;2023-04-24T08:54:04;97576.41;;;14.09;57.45
55604;BME280;41468;48.838;9.330;2023-04-24T08:56:33;97575.38;;;13.51;55.65
55604;BME280;41468;48.838;9.330;2023-04-24T08:59:00;97577.53;;;13.33;57.37
55604;BME280;41468;48.838;9.330;2023-04-24T09:01:28;97581.47;;;13.21;57.23
55604;BME280;41468;48.838;9.330;2023-04-24T09:03:55;97591.09;;;12.88;57.74
55604;BME280;41468;48.838;9.330;2023-04-24T09:06:23;97590.28;;;12.91;58.30
55604;BME280;41468;48.838;9.330;2023-04-24T09:08:53;97590.31;;;12.87;56.57
55604;BME280;41468;48.838;9.330;2023-04-24T09:11:20;97588.28;;;12.95;58.14
55604;BME280;41468;48.838;9.330;2023-04-24T09:13:48;97600.78;;;13.03;58.14
55604;BME280;41468;48.838;9.330;2023-04-24T09:16:14;97603.16;;;12.97;57.76
55604;BME280;41468;48.838;9.330;2023-04-24T09:18:41;97596.56;;;12.88;58.11
55604;BME280;41468;48.838;9.330;2023-04-24T09:21:09;97603.97;;;12.98;57.64
55604;BME280;41468;48.838;9.330;2023-04-24T09:23:36;97597.00;;;12.82;57.48
55604;BME280;41468;48.838;9.330;2023-04-24T09:26:03;97611.94;;;12.67;59.22
55604;BME280;41468;48.838;9.330;2023-04-24T09:28:38;97608.81;;;12.69;58.41
55604;BME280;41468;48.838;9.330;2023-04-24T09:31:13;97625.31;;;12.47;58.60
55604;BME280;41468;48.838;9.330;2023-04-24T09:34:02;97626.19;;;12.23;58.89
55604;BME280;41468;48.838;9.330;2023-04-24T09:36:34;97627.41;;;11.89;61.53
55604;BME280;41468;48.838;9.330;2023-04-24T09:39:10;97644.97;;;11.70;64.86
55604;BME280;41468;48.838;9.330;2023-04-24T09:41:54;97634.81;;;11.57;63.49
55604;BME280;41468;48.838;9.330;2023-04-24T09:44:26;97645.38;;;11.58;65.31
55604;BME280;41468;48.838;9.330;2023-04-24T09:46:55;97643.78;;;11.68;64.37
55604;BME280;41468;48.838;9.330;2023-04-24T09:49:23;97645.75;;;11.78;64.89
55604;BME280;41468;48.838;9.330;2023-04-24T09:51:51;97639.53;;;11.96;65.09
55604;BME280;41468;48.838;9.330;2023-04-24T09:54:20;97637.06;;;12.37;64.14
55604;BME280;41468;48.838;9.330;2023-04-24T09:56:49;97652.25;;;12.59;62.53
55604;BME280;41468;48.838;9.330;2023-04-24T09:59:19;97642.97;;;13.20;59.93
55604;BME280;41468;48.838;9.330;2023-04-24T10:01:46;97639.41;;;13.30;58.39
55604;BME280;41468;48.838;9.330;2023-04-24T10:06:44;97647.31;;;13.10;57.33
55604;BME280;41468;48.838;9.330;2023-04-24T10:09:11;97644.25;;;12.97;55.95
55604;BME280;41468;48.838;9.330;2023-04-24T10:11:45;97648.53;;;13.02;56.58
55604;BME280;41468;48.838;9.330;2023-04-24T10:14:15;97659.16;;;13.63;54.62
55604;BME280;41468;48.838;9.330;2023-04-24T10:16:43;97653.66;;;14.11;53.15
55604;BME280;41468;48.838;9.330;2023-04-24T10:19:10;97653.75;;;14.01;51.11
55604;BME280;41468;48.838;9.330;2023-04-24T10:21:40;97648.81;;;14.23;50.29
55604;BME280;41468;48.838;9.330;2023-04-24T10:24:14;97656.44;;;14.80;51.10
55604;BME280;41468;48.838;9.330;2023-04-24T10:26:43;97646.09;;;15.22;48.71
55604;BME280;41468;48.838;9.330;2023-04-24T10:29:11;97651.53;;;15.53;47.92
55604;BME280;41468;48.838;9.330;2023-04-24T10:31:39;97659.91;;;15.18;47.79
55604;BME280;41468;48.838;9.330;2023-04-24T10:34:06;97656.53;;;15.07;47.90
55604;BME280;41468;48.838;9.330;2023-04-24T10:36:35;97654.97;;;14.72;48.18
55604;BME280;41468;48.838;9.330;2023-04-24T10:39:07;97659.22;;;14.42;48.21
55604;BME280;41468;48.838;9.330;2023-04-24T10:41:37;97665.34;;;14.15;47.93
55604;BME280;41468;48.838;9.330;2023-04-24T10:44:09;97658.69;;;13.72;48.52
55604;BME280;41468;48.838;9.330;2023-04-24T10:46:37;97670.94;;;13.60;49.61
55604;BME280;41468;48.838;9.330;2023-04-24T10:49:05;97673.09;;;13.27;50.62
55604;BME280;41468;48.838;9.330;2023-04-24T10:51:50;97671.22;;;13.10;51.16
55604;BME280;41468;48.838;9.330;2023-04-24T10:54:24;97677.91;;;13.01;52.30
55604;BME280;41468;48.838;9.330;2023-04-24T10:56:51;97672.94;;;12.75;51.58
55604;BME280;41468;48.838;9.330;2023-04-24T10:59:25;97683.94;;;12.64;51.69
55604;BME280;41468;48.838;9.330;2023-04-24T11:01:53;97689.03;;;12.66;52.15
55604;BME280;41468;48.838;9.330;2023-04-24T11:04:32;97693.34;;;12.63;52.56
55604;BME280;41468;48.838;9.330;2023-04-24T11:06:59;97688.63;;;12.64;52.45
55604;BME280;41468;48.838;9.330;2023-04-24T11:09:28;97685.47;;;12.72;52.72
55604;BME280;41468;48.838;9.330;2023-04-24T11:12:07;97689.03;;;12.66;52.48
55604;BME280;41468;48.838;9.330;2023-04-24T11:17:30;97696.75;;;12.92;51.86
55604;BME280;41468;48.838;9.330;2023-04-24T11:20:06;97690.44;;;12.99;51.44
55604;BME280;41468;48.838;9.330;2023-04-24T11:22:53;97696.19;;;13.30;50.23
55604;BME280;41468;48.838;9.330;2023-04-24T11:25:21;97701.69;;;13.22;51.95
55604;BME280;41468;48.838;9.330;2023-04-24T11:28:03;97711.88;;;13.29;52.86
55604;BME280;41468;48.838;9.330;2023-04-24T11:30:30;97711.09;;;13.25;52.92
55604;BME280;41468;48.838;9.330;2023-04-24T11:33:02;97710.31;;;13.24;52.93
55604;BME280;41468;48.838;9.330;2023-04-24T11:35:36;97710.63;;;13.41;52.41
55604;BME280;41468;48.838;9.330;2023-04-24T11:38:05;97710.66;;;13.34;52.62
55604;BME280;41468;48.838;9.330;2023-04-24T11:40:50;97717.28;;;13.43;53.09
55604;BME280;41468;48.838;9.330;2023-04-24T11:43:18;97721.25;;;13.32;52.10
55604;BME280;41468;48.838;9.330;2023-04-24T11:45:49;97725.94;;;13.38;52.41
55604;BME280;41468;48.838;9.330;2023-04-24T11:48:20;97721.97;;;13.43;51.34
55604;BME280;41468;48.838;9.330;2023-04-24T11:50:50;97714.09;;;13.48;50.57
55604;BME280;41468;48.838;9.330;2023-04-24T11:53:19;97723.53;;;13.44;51.19
55604;BME280;41468;48.838;9.330;2023-04-24T11:55:47;97715.75;;;13.39;51.29
55604;BME280;41468;48.838;9.330;2023-04-24T11:58:13;97720.38;;;13.49;56.53
55604;BME280;41468;48.838;9.330;2023-04-24T12:00:45;97719.72;;;13.20;53.13
55604;BME280;41468;48.838;9.330;2023-04-24T12:03:12;97736.66;;;13.00;53.40
55604;BME280;41468;48.838;9.330;2023-04-24T12:05:39;97733.13;;;12.96;56.66
55604;BME280;41468;48.838;9.330;2023-04-24T12:08:07;97731.25;;;12.75;62.13
55604;BME280;41468;48.838;9.330;2023-04-24T12:10:36;97735.56;;;12.76;65.21
55604;BME280;41468;48.838;9.330;2023-04-24T12:13:02;97727.66;;;12.89;63.12
55604;BME280;41468;48.838;9.330;2023-04-24T12:15:29;97738.56;;;13.07;62.55
55604;BME280;41468;48.838;9.330;2023-04-24T12:17:56;97738.13;;;13.26;57.30
55604;BME280;41468;48.838;9.330;2023-04-24T12:20:27;97740.88;;;13.19;55.83
55604;BME280;41468;48.838;9.330;2023-04-24T12:23:01;97742.78;;;13.33;55.95
55604;BME280;41468;48.838;9.330;2023-04-24T12:25:32;97741.63;;;13.23;53.59
55604;BME280;41468;48.838;9.330;2023-04-24T12:30:34;97738.97;;;13.09;54.23
55604;BME280;41468;48.838;9.330;2023-04-24T12:33:02;97738.97;;;13.09;55.97
55604;BME280;41468;48.838;9.330;2023-04-24T12:35:31;97733.88;;;13.04;55.28
55604;BME280;41468;48.838;9.330;2023-04-24T12:38:08;97731.63;;;12.85;55.47
55604;BME280;41468;48.838;9.330;2023-04-24T12:40:41;97730.03;;;12.87;55.91
55604;BME280;41468;48.838;9.330;2023-04-24T12:43:15;97735.50;;;12.91;55.84
55604;BME280;41468;48.838;9.330;2023-04-24T12:45:42;97740.56;;;12.96;56.27
55604;BME280;41468;48.838;9.330;2023-04-24T12:48:09;97737.47;;;12.87;54.73
55604;BME280;41468;48.838;9.330;2023-04-24T12:50:36;97742.16;;;12.90;54.69
55604;BME280;41468;48.838;9.330;2023-04-24T12:53:02;97741.03;;;12.73;54.22
55604;BME280;41468;48.838;9.330;2023-04-24T12:55:29;97746.53;;;12.69;53.94
55604;BME280;41468;48.838;9.330;2023-04-24T12:57:56;97740.25;;;12.65;54.47
55604;BME280;41468;48.838;9.330;2023-04-24T13:00:23;97741.41;;;12.82;55.55
55604;BME280;41468;48.838;9.330;2023-04-24T13:02:49;97737.09;;;12.77;55.23
55604;BME280;41468;48.838;9.330;2023-04-24T13:05:17;97736.28;;;12.84;55.15
55604;BME280;41468;48.838;9.330;2023-04-24T13:07:43;97741.03;;;12.76;54.70
55604;BME280;41468;48.838;9.330;2023-04-24T13:10:10;97742.56;;;12.85;55.23
55604;BME280;41468;48.838;9.330;2023-04-24T13:12:37;97738.69;;;12.68;57.02
55604;BME280;41468;48.838;9.330;2023-04-24T13:15:05;97751.22;;;12.54;58.92
55604;BME280;41468;48.838;9.330;2023-04-24T13:17:33;97764.53;;;12.56;64.02
55604;BME280;41468;48.838;9.330;2023-04-24T13:19:59;97755.56;;;12.55;65.08
55604;BME280;41468;48.838;9.330;2023-04-24T13:22:26;97761.41;;;12.68;65.97
55604;BME280;41468;48.838;9.330;2023-04-24T13:24:53;97748.06;;;12.70;66.08
55604;BME280;41468;48.838;9.330;2023-04-24T13:27:21;97744.94;;;12.75;63.75